Time;durP1;ratioP1;P1;durP2;ratioP2;P2;SDS_P1;SDS_P2;PMS_P1;PMS_P2;Temp;Humidity;BMP_temperature;BMP_pressure;BME280_temperature;BME280_humidity;BME280_pressure;Samples;Min_cycle;Max_cycle;Signal;HPM_P1;HPM_P2
2022/09/14 00:01:43;;;;;;;;;;;18.10;99.90;;;;;;5077615;28;19912;-65
2022/09/14 00:04:13;;;;;;;;;;;17.90;99.90;;;;;;5076767;28;20009;-64
2022/09/14 00:06:39;;;;;;;;;;;17.70;99.90;;;;;;5077594;28;19908;-65
2022/09/14 00:09:05;;;;;;;;;;;17.90;99.90;;;;;;5077566;28;19905;-65
2022/09/14 00:11:32;;;;;;;;;;;17.80;99.90;;;;;;5077432;28;19920;-65
2022/09/14 00:13:59;;;;;;;;;;;18.00;99.90;;;;;;5076827;28;19912;-65
2022/09/14 00:16:26;;;;;;;;;;;18.20;99.90;;;;;;5076758;28;19958;-65
2022/09/14 00:18:53;;;;;;;;;;;18.10;99.90;;;;;;5077421;28;19911;-65
2022/09/14 00:21:19;;;;;;;;;;;17.70;99.90;;;;;;5077433;28;19913;-65
2022/09/14 00:23:45;;;;;;;;;;;17.80;99.90;;;;;;5059947;28;20325;-65
2022/09/14 00:26:12;;;;;;;;;;;17.80;99.90;;;;;;5076721;28;19913;-64
2022/09/14 00:28:42;;;;;;;;;;;17.80;99.90;;;;;;5077338;28;19908;-65
2022/09/14 00:31:08;;;;;;;;;;;17.90;99.90;;;;;;5059926;28;19912;-65
2022/09/14 00:33:34;;;;;;;;;;;17.80;99.90;;;;;;5077410;28;19908;-64
2022/09/14 00:36:04;;;;;;;;;;;17.70;99.90;;;;;;5076487;28;19919;-65
2022/09/14 00:38:29;;;;;;;;;;;17.80;99.90;;;;;;5059809;28;20295;-65
2022/09/14 00:40:59;;;;;;;;;;;17.90;99.90;;;;;;5076589;28;19912;-65
2022/09/14 00:43:25;;;;;;;;;;;17.80;99.90;;;;;;5077140;28;19934;-65
2022/09/14 00:45:51;;;;;;;;;;;17.80;99.90;;;;;;5077224;28;20002;-65
2022/09/14 00:48:17;;;;;;;;;;;17.80;99.90;;;;;;5078980;28;19926;-64
2022/09/14 00:50:43;;;;;;;;;;;17.80;99.90;;;;;;5080460;28;20339;-65
2022/09/14 00:53:09;;;;;;;;;;;17.80;99.90;;;;;;5081128;28;20031;-64
2022/09/14 00:55:34;;;;;;;;;;;17.70;99.90;;;;;;5081138;28;20010;-64
2022/09/14 00:58:00;;;;;;;;;;;17.70;99.90;;;;;;5080887;28;19931;-64
2022/09/14 01:00:27;;;;;;;;;;;17.60;99.90;;;;;;5081008;28;20173;-64
2022/09/14 01:02:53;;;;;;;;;;;17.60;99.90;;;;;;5080338;28;19916;-64
2022/09/14 01:05:23;;;;;;;;;;;17.70;99.90;;;;;;5080915;28;19908;-64
2022/09/14 01:08:24;;;;;;;;;;;17.60;99.90;;;;;;5080829;28;19908;-64
2022/09/14 01:11:00;;;;;;;;;;;17.50;99.90;;;;;;5019500;28;20234;-63
2022/09/14 01:13:26;;;;;;;;;;;17.40;99.90;;;;;;5072546;28;19908;-64
2022/09/14 01:15:59;;;;;;;;;;;17.30;99.90;;;;;;5080691;28;20276;-64
2022/09/14 01:18:28;;;;;;;;;;;17.40;99.90;;;;;;5080629;28;19909;-65
2022/09/14 01:21:02;;;;;;;;;;;17.30;99.90;;;;;;5080617;28;19938;-66
2022/09/14 01:23:34;;;;;;;;;;;17.30;99.90;;;;;;5063130;28;19909;-64
2022/09/14 01:26:06;;;;;;;;;;;17.20;99.90;;;;;;5080809;28;19999;-63
2022/09/14 01:28:45;;;;;;;;;;;17.30;99.90;;;;;;5080461;28;19967;-65
2022/09/14 01:31:17;;;;;;;;;;;17.30;99.90;;;;;;5080352;28;20318;-64
2022/09/14 01:33:47;;;;;;;;;;;17.30;99.90;;;;;;5080425;28;19916;-62
2022/09/14 01:36:14;;;;;;;;;;;17.30;99.90;;;;;;5062854;28;19966;-62
2022/09/14 01:38:42;;;;;;;;;;;17.40;99.90;;;;;;5080229;28;19919;-62
2022/09/14 01:41:10;;;;;;;;;;;17.40;99.90;;;;;;5080301;28;19909;-62
2022/09/14 01:43:52;;;;;;;;;;;17.30;99.90;;;;;;5079454;28;19909;-62
2022/09/14 01:46:21;;;;;;;;;;;17.20;99.90;;;;;;5079428;28;19919;-63
2022/09/14 01:48:53;;;;;;;;;;;17.30;99.90;;;;;;5080051;28;20195;-63
2022/09/14 01:51:25;;;;;;;;;;;17.30;99.90;;;;;;5062577;28;19935;-63
2022/09/14 01:53:56;;;;;;;;;;;17.30;99.90;;;;;;5080017;28;19908;-62
2022/09/14 01:56:31;;;;;;;;;;;17.30;99.90;;;;;;5080256;28;20280;-62
2022/09/14 01:59:06;;;;;;;;;;;17.20;99.90;;;;;;5061611;28;19912;-62
2022/09/14 02:01:36;;;;;;;;;;;17.20;99.90;;;;;;5062389;28;19908;-62
2022/09/14 02:04:05;;;;;;;;;;;17.10;99.90;;;;;;5079789;28;19916;-62
2022/09/14 02:06:36;;;;;;;;;;;17.20;99.90;;;;;;5062431;28;19920;-62
2022/09/14 02:09:03;;;;;;;;;;;17.20;99.90;;;;;;5079889;28;19908;-62
2022/09/14 02:11:28;;;;;;;;;;;17.00;99.90;;;;;;5079666;28;19912;-62
2022/09/14 02:13:54;;;;;;;;;;;17.10;99.90;;;;;;5078920;28;20291;-62
2022/09/14 02:16:21;;;;;;;;;;;17.00;99.90;;;;;;5079650;28;19908;-62
2022/09/14 02:18:47;;;;;;;;;;;17.10;99.90;;;;;;5079602;28;19908;-62
2022/09/14 02:21:17;;;;;;;;;;;17.10;99.90;;;;;;5080060;28;19923;-62
2022/09/14 02:23:43;;;;;;;;;;;17.30;99.90;;;;;;5079383;28;19908;-62
2022/09/14 02:26:10;;;;;;;;;;;17.10;99.90;;;;;;5079472;28;19915;-62
2022/09/14 02:28:35;;;;;;;;;;;17.10;99.90;;;;;;5078546;28;20249;-61
2022/09/14 02:31:01;;;;;;;;;;;17.10;99.90;;;;;;5078479;28;20011;-61
2022/09/14 02:33:34;;;;;;;;;;;17.00;99.90;;;;;;5079204;28;19920;-62
2022/09/14 02:36:06;;;;;;;;;;;17.00;99.90;;;;;;5061939;28;20019;-62
2022/09/14 02:38:31;;;;;;;;;;;17.10;99.90;;;;;;5079421;28;19957;-62
2022/09/14 02:41:09;;;;;;;;;;;17.20;99.90;;;;;;5078421;28;19912;-63
2022/09/14 02:43:50;;;;;;;;;;;17.10;99.90;;;;;;5079355;28;19916;-63
2022/09/14 02:46:27;;;;;;;;;;;17.30;99.90;;;;;;5078988;28;19908;-62
2022/09/14 02:48:53;;;;;;;;;;;17.30;99.90;;;;;;5078982;28;19909;-63
2022/09/14 02:51:25;;;;;;;;;;;17.30;99.90;;;;;;5078992;28;19938;-62
2022/09/14 02:54:03;;;;;;;;;;;17.10;99.90;;;;;;5078159;28;19912;-62
2022/09/14 02:56:30;;;;;;;;;;;16.90;99.90;;;;;;5078579;28;19966;-64
2022/09/14 02:58:56;;;;;;;;;;;16.70;99.90;;;;;;5078760;28;19928;-65
2022/09/14 03:01:22;;;;;;;;;;;16.80;99.90;;;;;;5078099;28;19912;-65
2022/09/14 03:03:48;;;;;;;;;;;16.90;99.90;;;;;;5078530;28;19923;-64
2022/09/14 03:06:14;;;;;;;;;;;17.00;99.90;;;;;;5078619;28;19909;-65
2022/09/14 03:08:40;;;;;;;;;;;16.80;99.90;;;;;;5078537;28;19904;-65
2022/09/14 03:11:05;;;;;;;;;;;16.80;99.90;;;;;;5077301;28;19916;-64
2022/09/14 03:13:33;;;;;;;;;;;16.80;99.90;;;;;;5077619;28;19948;-66
2022/09/14 03:16:03;;;;;;;;;;;16.70;99.90;;;;;;5078395;28;20352;-65
2022/09/14 03:18:29;;;;;;;;;;;16.50;99.90;;;;;;5060929;28;19909;-64
2022/09/14 03:21:00;;;;;;;;;;;16.60;99.90;;;;;;5078385;28;19908;-65
2022/09/14 03:23:26;;;;;;;;;;;16.50;99.90;;;;;;5077714;28;19908;-66
2022/09/14 03:25:51;;;;;;;;;;;16.60;99.90;;;;;;5078198;28;19912;-64
2022/09/14 03:28:17;;;;;;;;;;;16.60;99.90;;;;;;5078157;28;19916;-65
2022/09/14 03:30:42;;;;;;;;;;;16.40;99.90;;;;;;5060583;28;19908;-65
2022/09/14 03:33:08;;;;;;;;;;;16.40;99.90;;;;;;5077390;28;19912;-65
2022/09/14 03:35:34;;;;;;;;;;;16.40;99.90;;;;;;5060592;28;19916;-66
2022/09/14 03:38:01;;;;;;;;;;;16.30;99.90;;;;;;5077974;28;19955;-65
2022/09/14 03:40:27;;;;;;;;;;;16.30;99.90;;;;;;5077928;28;20268;-65
2022/09/14 03:42:53;;;;;;;;;;;16.50;99.90;;;;;;5077927;28;19927;-65
2022/09/14 03:45:20;;;;;;;;;;;16.50;99.90;;;;;;5077795;28;19908;-65
2022/09/14 03:47:46;;;;;;;;;;;16.40;99.90;;;;;;5077804;28;19908;-65
2022/09/14 03:50:12;;;;;;;;;;;16.20;99.90;;;;;;5060590;28;19912;-65
2022/09/14 03:52:38;;;;;;;;;;;16.20;99.90;;;;;;5077621;28;19943;-65
2022/09/14 03:55:04;;;;;;;;;;;16.40;99.90;;;;;;5077605;28;19908;-65
2022/09/14 03:57:30;;;;;;;;;;;16.40;99.90;;;;;;5077751;28;20007;-66
2022/09/14 03:59:55;;;;;;;;;;;16.40;99.90;;;;;;5060162;28;20296;-65
2022/09/14 04:02:21;;;;;;;;;;;16.40;99.90;;;;;;5077615;28;19912;-66
2022/09/14 04:04:47;;;;;;;;;;;16.40;99.90;;;;;;5077529;28;19922;-65
2022/09/14 04:07:14;;;;;;;;;;;16.40;99.90;;;;;;5077624;28;19908;-65
2022/09/14 04:09:40;;;;;;;;;;;16.40;99.90;;;;;;5076731;28;19908;-64
2022/09/14 04:12:05;;;;;;;;;;;16.40;99.90;;;;;;5076796;28;19924;-64
2022/09/14 04:14:31;;;;;;;;;;;16.50;99.90;;;;;;5077563;28;19916;-64
2022/09/14 04:16:57;;;;;;;;;;;16.40;99.90;;;;;;5076789;28;20066;-64
2022/09/14 04:19:23;;;;;;;;;;;16.40;99.90;;;;;;5077412;28;20053;-65
2022/09/14 04:21:48;;;;;;;;;;;16.20;99.90;;;;;;5077045;28;19912;-65
2022/09/14 04:24:14;;;;;;;;;;;16.30;99.90;;;;;;5076248;28;19913;-65
2022/09/14 04:26:40;;;;;;;;;;;16.20;99.90;;;;;;5077393;28;20015;-65
2022/09/14 04:29:06;;;;;;;;;;;16.20;99.90;;;;;;5077253;28;19908;-64
2022/09/14 04:31:32;;;;;;;;;;;16.30;99.90;;;;;;5077203;28;19970;-64
2022/09/14 04:33:57;;;;;;;;;;;16.30;99.90;;;;;;5076384;28;20006;-64
2022/09/14 04:36:29;;;;;;;;;;;16.30;99.90;;;;;;5059684;28;19912;-64
2022/09/14 04:38:56;;;;;;;;;;;16.40;99.90;;;;;;5077246;28;19909;-64
2022/09/14 04:41:22;;;;;;;;;;;16.40;99.90;;;;;;5077198;28;19951;-64
2022/09/14 04:43:51;;;;;;;;;;;16.40;99.90;;;;;;5077133;28;19908;-64
2022/09/14 04:46:19;;;;;;;;;;;16.30;99.90;;;;;;5059815;28;19916;-64
2022/09/14 04:48:45;;;;;;;;;;;16.40;99.90;;;;;;5077019;28;20024;-64
2022/09/14 04:51:12;;;;;;;;;;;16.40;99.90;;;;;;5076972;28;20283;-64
2022/09/14 04:53:38;;;;;;;;;;;16.40;99.90;;;;;;5076622;28;20314;-64
2022/09/14 04:56:06;;;;;;;;;;;16.30;99.90;;;;;;5077075;28;19908;-64
2022/09/14 04:58:32;;;;;;;;;;;16.30;99.90;;;;;;5076897;28;19916;-64
2022/09/14 05:01:01;;;;;;;;;;;16.40;99.90;;;;;;5076917;28;19919;-65
2022/09/14 05:03:27;;;;;;;;;;;16.30;99.90;;;;;;5076884;28;19931;-65
2022/09/14 05:05:53;;;;;;;;;;;16.20;99.90;;;;;;5076877;28;19912;-65
2022/09/14 05:08:18;;;;;;;;;;;16.20;99.90;;;;;;5077225;28;19931;-64
2022/09/14 05:10:44;;;;;;;;;;;16.20;99.90;;;;;;5076910;28;19912;-65
2022/09/14 05:13:09;;;;;;;;;;;16.10;99.90;;;;;;5076874;28;19977;-64
2022/09/14 05:15:35;;;;;;;;;;;16.10;99.90;;;;;;5076252;28;20276;-64
2022/09/14 05:18:02;;;;;;;;;;;16.10;99.90;;;;;;5076736;28;19912;-64
2022/09/14 05:20:28;;;;;;;;;;;16.20;99.90;;;;;;5076760;28;19959;-67
2022/09/14 05:22:53;;;;;;;;;;;16.10;99.90;;;;;;5076054;28;19994;-63
2022/09/14 05:25:19;;;;;;;;;;;16.00;99.90;;;;;;5076771;28;20271;-63
2022/09/14 05:27:45;;;;;;;;;;;15.90;99.90;;;;;;5059675;28;19924;-63
2022/09/14 05:30:11;;;;;;;;;;;15.80;99.90;;;;;;5076629;28;19908;-63
2022/09/14 05:32:36;;;;;;;;;;;15.90;99.90;;;;;;5076742;28;20382;-63
2022/09/14 05:35:02;;;;;;;;;;;15.90;99.90;;;;;;5079439;28;19970;-62
2022/09/14 05:37:28;;;;;;;;;;;15.90;99.90;;;;;;5063031;28;19924;-61
2022/09/14 05:39:53;;;;;;;;;;;16.00;99.90;;;;;;5080257;28;19956;-62
2022/09/14 05:42:19;;;;;;;;;;;15.90;99.90;;;;;;5080176;28;19924;-62
2022/09/14 05:44:45;;;;;;;;;;;15.70;99.90;;;;;;5080095;28;19919;-61
2022/09/14 05:47:10;;;;;;;;;;;15.80;99.90;;;;;;5079287;28;19912;-62
2022/09/14 05:49:36;;;;;;;;;;;15.80;99.90;;;;;;5080063;28;19977;-62
2022/09/14 05:52:02;;;;;;;;;;;15.90;99.90;;;;;;5079302;28;19912;-62
2022/09/14 05:54:28;;;;;;;;;;;15.90;99.90;;;;;;5079860;28;19908;-61
2022/09/14 05:56:54;;;;;;;;;;;15.80;99.90;;;;;;5079503;28;20003;-61
2022/09/14 05:59:19;;;;;;;;;;;15.90;99.90;;;;;;5062500;28;20323;-64
2022/09/14 06:01:45;;;;;;;;;;;15.90;99.90;;;;;;5079893;28;19924;-61
2022/09/14 06:04:11;;;;;;;;;;;15.80;99.90;;;;;;5079088;28;19951;-63
2022/09/14 06:06:36;;;;;;;;;;;15.80;99.90;;;;;;5062398;28;19952;-62
2022/09/14 06:09:02;;;;;;;;;;;15.60;99.90;;;;;;5079615;28;19913;-64
2022/09/14 06:11:30;;;;;;;;;;;15.50;99.90;;;;;;5079668;28;19912;-62
2022/09/14 06:13:56;;;;;;;;;;;15.50;99.90;;;;;;5079604;28;19904;-64
2022/09/14 06:16:22;;;;;;;;;;;15.70;99.90;;;;;;5079598;28;19912;-63
2022/09/14 06:18:48;;;;;;;;;;;15.60;99.90;;;;;;5062128;28;19925;-63
2022/09/14 06:21:15;;;;;;;;;;;15.70;99.90;;;;;;5079428;28;19909;-63
2022/09/14 06:23:42;;;;;;;;;;;15.70;99.90;;;;;;5078771;28;20283;-63
2022/09/14 06:26:08;;;;;;;;;;;15.60;99.90;;;;;;5079496;28;20019;-63
2022/09/14 06:28:33;;;;;;;;;;;15.70;99.90;;;;;;5062094;28;20256;-61
2022/09/14 06:30:59;;;;;;;;;;;15.70;99.90;;;;;;5079146;28;20245;-63
2022/09/14 06:33:25;;;;;;;;;;;15.80;99.90;;;;;;5061993;28;19961;-62
2022/09/14 06:35:58;;;;;;;;;;;15.70;99.90;;;;;;5079260;28;19916;-62
2022/09/14 06:38:25;;;;;;;;;;;15.70;99.90;;;;;;5079144;28;19908;-57
2022/09/14 06:40:57;;;;;;;;;;;15.80;99.90;;;;;;5079112;28;19904;-62
2022/09/14 06:43:24;;;;;;;;;;;15.90;99.90;;;;;;5079570;28;20184;-64
2022/09/14 06:45:56;;;;;;;;;;;15.80;99.90;;;;;;5078347;28;19982;-64
2022/09/14 06:48:21;;;;;;;;;;;15.70;99.90;;;;;;5079026;28;19908;-65
2022/09/14 06:50:47;;;;;;;;;;;15.60;99.90;;;;;;5061555;28;20037;-65
2022/09/14 06:53:13;;;;;;;;;;;15.60;99.90;;;;;;5078172;28;19954;-65
2022/09/14 06:55:38;;;;;;;;;;;15.60;99.90;;;;;;5078912;28;20240;-64
2022/09/14 06:58:06;;;;;;;;;;;15.60;99.90;;;;;;5078632;28;19920;-65
2022/09/14 07:00:32;;;;;;;;;;;16.00;99.90;;;;;;5078098;28;20199;-66
2022/09/14 07:02:57;;;;;;;;;;;16.00;99.90;;;;;;5078005;28;19916;-65
2022/09/14 07:05:23;;;;;;;;;;;16.10;99.90;;;;;;5078659;28;20268;-64
2022/09/14 07:07:52;;;;;;;;;;;15.90;99.90;;;;;;5078597;28;19912;-65
2022/09/14 07:10:18;;;;;;;;;;;15.90;99.90;;;;;;5061436;28;19927;-64
2022/09/14 07:12:43;;;;;;;;;;;15.90;99.90;;;;;;5078397;28;20292;-64
2022/09/14 07:15:09;;;;;;;;;;;15.80;99.90;;;;;;5078481;28;20009;-65
2022/09/14 07:17:35;;;;;;;;;;;15.70;99.90;;;;;;5078413;28;19927;-65
2022/09/14 07:20:05;;;;;;;;;;;15.80;99.90;;;;;;5078322;28;19919;-65
2022/09/14 07:22:34;;;;;;;;;;;15.80;99.90;;;;;;5078345;28;19918;-66
2022/09/14 07:25:00;;;;;;;;;;;15.70;99.90;;;;;;5078493;28;20176;-65
2022/09/14 07:27:26;;;;;;;;;;;15.70;99.90;;;;;;5078494;28;19953;-64
2022/09/14 07:29:52;;;;;;;;;;;15.80;99.90;;;;;;5078740;28;19919;-64
2022/09/14 07:32:18;;;;;;;;;;;15.90;99.90;;;;;;5078032;28;19959;-64
2022/09/14 07:34:44;;;;;;;;;;;15.90;99.90;;;;;;5078134;28;19958;-63
2022/09/14 07:37:09;;;;;;;;;;;16.10;99.90;;;;;;5078070;28;19916;-63
2022/09/14 07:39:35;;;;;;;;;;;16.10;99.90;;;;;;5060623;28;19924;-63
2022/09/14 07:42:01;;;;;;;;;;;16.20;99.90;;;;;;5077941;28;20240;-63
2022/09/14 07:44:27;;;;;;;;;;;16.10;99.90;;;;;;5078270;28;19908;-64
2022/09/14 07:46:52;;;;;;;;;;;15.90;99.90;;;;;;5077899;28;19908;-64
2022/09/14 07:49:18;;;;;;;;;;;16.00;99.90;;;;;;5078232;28;20184;-64
2022/09/14 07:51:44;;;;;;;;;;;15.80;99.90;;;;;;5077075;28;19918;-64
2022/09/14 07:54:11;;;;;;;;;;;15.40;99.90;;;;;;5077694;28;20272;-63
2022/09/14 07:56:37;;;;;;;;;;;15.40;99.90;;;;;;5077142;28;19908;-65
2022/09/14 07:59:03;;;;;;;;;;;15.40;99.90;;;;;;5077165;28;19918;-62
2022/09/14 08:01:30;;;;;;;;;;;15.60;99.90;;;;;;5060674;28;19920;-64
2022/09/14 08:03:59;;;;;;;;;;;15.90;99.90;;;;;;5077296;28;19908;-63
2022/09/14 08:06:25;;;;;;;;;;;15.90;99.90;;;;;;5077883;28;20348;-63
2022/09/14 08:08:51;;;;;;;;;;;16.00;99.90;;;;;;5060971;28;20003;-64
2022/09/14 08:11:18;;;;;;;;;;;16.10;99.90;;;;;;5060488;28;19951;-62
2022/09/14 08:13:45;;;;;;;;;;;16.10;99.90;;;;;;5077696;28;19947;-61
2022/09/14 08:16:12;;;;;;;;;;;16.00;99.90;;;;;;5077337;28;19908;-62
2022/09/14 08:18:37;;;;;;;;;;;16.00;99.90;;;;;;5077760;28;20287;-63
2022/09/14 08:21:04;;;;;;;;;;;16.00;99.90;;;;;;5077788;28;19930;-62
2022/09/14 08:23:29;;;;;;;;;;;16.20;99.90;;;;;;5077622;28;19909;-62
2022/09/14 08:25:55;;;;;;;;;;;16.20;99.90;;;;;;5060346;28;19919;-61
2022/09/14 08:28:20;;;;;;;;;;;16.30;99.90;;;;;;5077683;28;19909;-61
2022/09/14 08:30:46;;;;;;;;;;;16.50;99.90;;;;;;5060323;28;19912;-61
2022/09/14 08:33:12;;;;;;;;;;;16.60;99.90;;;;;;5077614;28;19965;-62
2022/09/14 08:35:41;;;;;;;;;;;16.60;99.90;;;;;;5077561;28;19958;-60
2022/09/14 08:38:06;;;;;;;;;;;16.70;99.90;;;;;;5077286;28;20275;-60
2022/09/14 08:40:32;;;;;;;;;;;16.70;99.90;;;;;;5077197;28;19920;-59
2022/09/14 08:43:01;;;;;;;;;;;16.60;99.90;;;;;;5077205;28;19913;-60
2022/09/14 08:45:27;;;;;;;;;;;16.50;99.90;;;;;;5077147;28;19908;-60
2022/09/14 08:47:54;;;;;;;;;;;16.60;99.90;;;;;;5077851;28;19951;-61
2022/09/14 08:50:20;;;;;;;;;;;16.60;99.90;;;;;;5077454;28;19959;-61
2022/09/14 08:52:52;;;;;;;;;;;16.80;99.90;;;;;;5077033;28;19916;-61
2022/09/14 08:55:36;;;;;;;;;;;16.90;99.90;;;;;;5077071;28;19983;-61
2022/09/14 08:58:01;;;;;;;;;;;17.00;99.90;;;;;;5076897;28;20296;-60
2022/09/14 09:00:32;;;;;;;;;;;17.10;99.90;;;;;;5077368;28;20034;-61
2022/09/14 09:03:04;;;;;;;;;;;17.00;99.90;;;;;;5077365;28;19915;-60
2022/09/14 09:05:36;;;;;;;;;;;17.10;99.90;;;;;;5077294;28;19908;-60
2022/09/14 09:08:07;;;;;;;;;;;16.90;99.90;;;;;;5077030;28;20179;-60
2022/09/14 09:10:34;;;;;;;;;;;16.70;99.90;;;;;;5063697;28;19914;-60
2022/09/14 09:13:00;;;;;;;;;;;16.70;99.90;;;;;;5081441;28;19908;-60
2022/09/14 09:15:41;;;;;;;;;;;16.80;99.90;;;;;;5081036;28;19930;-61
2022/09/14 09:18:08;;;;;;;;;;;16.80;99.90;;;;;;5081429;28;20280;-59
2022/09/14 09:20:45;;;;;;;;;;;16.60;99.90;;;;;;5080978;28;20006;-60
2022/09/14 09:23:21;;;;;;;;;;;16.70;99.90;;;;;;5081228;28;20007;-61
2022/09/14 09:25:52;;;;;;;;;;;16.50;99.90;;;;;;5080848;28;19919;-61
2022/09/14 09:28:18;;;;;;;;;;;16.80;99.90;;;;;;5080807;28;19922;-61
2022/09/14 09:30:44;;;;;;;;;;;16.80;99.90;;;;;;5080503;28;20280;-61
2022/09/14 09:33:14;;;;;;;;;;;16.70;99.90;;;;;;5080292;28;19943;-62
2022/09/14 09:36:11;;;;;;;;;;;16.60;99.90;;;;;;5065671;28;20288;-62
2022/09/14 09:38:37;;;;;;;;;;;16.60;99.90;;;;;;5046203;28;20026;-62
2022/09/14 09:41:11;;;;;;;;;;;16.50;99.90;;;;;;5079551;28;19924;-62
2022/09/14 09:43:56;;;;;;;;;;;16.50;99.90;;;;;;5062838;28;19909;-61
2022/09/14 09:46:22;;;;;;;;;;;16.30;99.90;;;;;;5062774;28;19995;-61
2022/09/14 09:48:48;;;;;;;;;;;16.30;99.90;;;;;;5062739;28;19954;-62
2022/09/14 09:51:15;;;;;;;;;;;16.50;99.90;;;;;;5079916;28;19908;-62
2022/09/14 09:53:46;;;;;;;;;;;16.60;99.90;;;;;;5079825;28;20243;-62
2022/09/14 09:56:20;;;;;;;;;;;16.70;99.90;;;;;;5062567;28;19908;-61
2022/09/14 09:58:50;;;;;;;;;;;16.60;99.90;;;;;;5080140;28;19916;-61
2022/09/14 10:01:26;;;;;;;;;;;16.40;99.90;;;;;;5079753;28;19970;-62
2022/09/14 10:04:10;;;;;;;;;;;16.40;99.90;;;;;;5079835;28;19908;-62
2022/09/14 10:06:46;;;;;;;;;;;16.40;99.90;;;;;;5078932;28;19908;-62
2022/09/14 10:09:22;;;;;;;;;;;16.60;99.90;;;;;;5079810;28;19919;-62
2022/09/14 10:11:59;;;;;;;;;;;16.70;99.90;;;;;;5079514;28;19923;-61
2022/09/14 10:14:35;;;;;;;;;;;16.70;99.90;;;;;;5079331;28;19912;-62
2022/09/14 10:17:05;;;;;;;;;;;16.50;99.90;;;;;;5079458;28;19908;-61
2022/09/14 10:19:31;;;;;;;;;;;16.70;99.90;;;;;;5079203;28;19965;-61
2022/09/14 10:22:03;;;;;;;;;;;16.70;99.90;;;;;;5078474;28;19912;-62
2022/09/14 10:24:30;;;;;;;;;;;16.50;99.90;;;;;;5079434;28;20246;-63
2022/09/14 10:26:55;;;;;;;;;;;16.20;99.90;;;;;;5062026;28;20219;-62
2022/09/14 10:29:30;;;;;;;;;;;16.30;99.90;;;;;;5079457;28;19974;-62
2022/09/14 10:31:59;;;;;;;;;;;16.60;99.90;;;;;;5080088;28;20010;-61
2022/09/14 10:34:25;;;;;;;;;;;16.70;99.90;;;;;;5079197;28;19908;-63
2022/09/14 10:36:57;;;;;;;;;;;16.70;99.90;;;;;;5079233;28;20292;-62
2022/09/14 10:39:27;;;;;;;;;;;16.70;99.90;;;;;;5079135;28;19919;-62
2022/09/14 10:42:06;;;;;;;;;;;16.80;99.90;;;;;;5079154;28;19915;-65
2022/09/14 10:44:43;;;;;;;;;;;16.80;99.90;;;;;;5079186;28;20192;-63
2022/09/14 10:47:15;;;;;;;;;;;16.90;99.90;;;;;;5079758;28;19944;-61
2022/09/14 10:50:00;;;;;;;;;;;16.90;99.90;;;;;;5078158;28;19908;-61
2022/09/14 10:52:40;;;;;;;;;;;16.90;99.90;;;;;;5078863;28;19912;-60
2022/09/14 10:55:06;;;;;;;;;;;16.80;99.90;;;;;;5079184;28;20168;-61
2022/09/14 10:57:40;;;;;;;;;;;16.60;99.90;;;;;;5061304;28;19924;-62
2022/09/14 11:00:11;;;;;;;;;;;16.50;99.90;;;;;;5078957;28;20187;-62
2022/09/14 11:02:37;;;;;;;;;;;16.20;99.90;;;;;;5078003;28;19909;-60
2022/09/14 11:05:21;;;;;;;;;;;16.20;99.90;;;;;;5078786;28;19919;-61
2022/09/14 11:07:54;;;;;;;;;;;15.90;99.90;;;;;;5077848;28;20015;-62
2022/09/14 11:10:37;;;;;;;;;;;15.90;99.90;;;;;;5078811;28;19908;-62
2022/09/14 11:13:15;;;;;;;;;;;15.90;99.90;;;;;;5078331;28;20187;-62
2022/09/14 11:15:59;;;;;;;;;;;16.10;99.90;;;;;;5078363;28;19915;-61
2022/09/14 11:18:40;;;;;;;;;;;16.10;99.90;;;;;;5061413;28;19911;-62
2022/09/14 11:21:24;;;;;;;;;;;16.00;99.90;;;;;;5078603;28;19908;-62
2022/09/14 11:23:54;;;;;;;;;;;15.90;99.90;;;;;;5060891;28;19908;-62
2022/09/14 11:26:22;;;;;;;;;;;15.50;99.90;;;;;;5060933;28;20156;-61
2022/09/14 11:28:53;;;;;;;;;;;15.40;99.90;;;;;;5078167;28;19916;-61
2022/09/14 11:31:27;;;;;;;;;;;15.30;99.90;;;;;;5078439;28;20008;-62
2022/09/14 11:33:53;;;;;;;;;;;15.40;99.90;;;;;;5060738;28;20290;-60
2022/09/14 11:36:43;;;;;;;;;;;15.50;99.90;;;;;;5060827;28;20191;-60
2022/09/14 11:39:16;;;;;;;;;;;15.60;99.90;;;;;;5055339;28;19908;-60
2022/09/14 11:41:47;;;;;;;;;;;15.90;99.90;;;;;;5077996;28;19908;-62
2022/09/14 11:44:39;;;;;;;;;;;16.00;99.90;;;;;;5077920;28;19912;-62
2022/09/14 11:47:05;;;;;;;;;;;16.00;99.90;;;;;;5074945;28;20373;-61
2022/09/14 11:49:47;;;;;;;;;;;15.90;99.90;;;;;;5077722;28;19905;-62
2022/09/14 11:52:16;;;;;;;;;;;16.00;99.90;;;;;;5043786;28;19964;-61
2022/09/14 11:54:42;;;;;;;;;;;16.20;99.90;;;;;;5077788;28;19914;-61
2022/09/14 11:57:28;;;;;;;;;;;16.10;99.90;;;;;;5076814;28;20011;-61
2022/09/14 11:59:57;;;;;;;;;;;16.00;99.90;;;;;;5077638;28;19912;-61
2022/09/14 12:02:22;;;;;;;;;;;16.10;99.90;;;;;;5076785;28;19909;-62
2022/09/14 12:05:03;;;;;;;;;;;15.90;99.90;;;;;;5043438;28;19973;-61
2022/09/14 12:07:38;;;;;;;;;;;16.30;99.90;;;;;;5077600;28;19908;-60
2022/09/14 12:10:13;;;;;;;;;;;16.60;99.90;;;;;;5077473;28;19908;-61
2022/09/14 12:12:43;;;;;;;;;;;17.00;99.90;;;;;;5076626;28;19912;-61
2022/09/14 12:15:32;;;;;;;;;;;17.10;99.90;;;;;;5077678;28;19919;-61
2022/09/14 12:18:04;;;;;;;;;;;17.20;99.90;;;;;;5077427;28;19930;-62
2022/09/14 12:20:41;;;;;;;;;;;17.30;99.90;;;;;;5077424;28;19987;-62
2022/09/14 12:23:26;;;;;;;;;;;17.40;99.90;;;;;;5076564;28;20291;-61
2022/09/14 12:25:52;;;;;;;;;;;17.30;99.90;;;;;;5077195;28;19919;-59
2022/09/14 12:28:47;;;;;;;;;;;17.40;99.90;;;;;;5077269;28;20222;-60
2022/09/14 12:31:28;;;;;;;;;;;17.50;99.90;;;;;;5075610;28;19909;-61
2022/09/14 12:34:15;;;;;;;;;;;17.80;99.90;;;;;;5077549;28;19991;-60
2022/09/14 12:36:41;;;;;;;;;;;18.00;99.90;;;;;;5077205;28;19934;-59
2022/09/14 12:39:32;;;;;;;;;;;18.00;99.90;;;;;;5077211;28;20010;-60
2022/09/14 12:42:03;;;;;;;;;;;17.90;99.90;;;;;;5057948;28;19920;-60
2022/09/14 12:44:34;;;;;;;;;;;18.00;99.90;;;;;;5079350;28;19939;-60
2022/09/14 12:47:19;;;;;;;;;;;18.10;99.90;;;;;;5081306;28;19908;-59
2022/09/14 12:49:47;;;;;;;;;;;18.20;99.90;;;;;;5080638;28;20284;-60
2022/09/14 12:52:18;;;;;;;;;;;18.20;99.90;;;;;;5081112;28;20346;-59
2022/09/14 12:54:48;;;;;;;;;;;18.20;99.90;;;;;;5081276;28;19912;-60
2022/09/14 12:57:20;;;;;;;;;;;18.50;99.90;;;;;;5080311;28;19982;-60
2022/09/14 12:59:49;;;;;;;;;;;18.60;99.90;;;;;;5080270;28;20020;-60
2022/09/14 13:02:33;;;;;;;;;;;18.70;99.90;;;;;;5080948;28;19908;-61
2022/09/14 13:04:59;;;;;;;;;;;18.50;99.90;;;;;;5080986;28;20196;-60
2022/09/14 13:07:28;;;;;;;;;;;18.40;99.90;;;;;;5063436;28;19918;-60
2022/09/14 13:09:55;;;;;;;;;;;18.50;99.90;;;;;;5080794;28;20314;-59
2022/09/14 13:12:33;;;;;;;;;;;18.40;99.90;;;;;;5063329;28;20280;-60
2022/09/14 13:15:00;;;;;;;;;;;18.40;99.90;;;;;;5080695;28;19912;-60
2022/09/14 13:17:26;;;;;;;;;;;18.30;99.90;;;;;;5080699;28;19934;-59
2022/09/14 13:19:53;;;;;;;;;;;18.20;99.90;;;;;;5080702;28;19904;-60
2022/09/14 13:22:21;;;;;;;;;;;18.20;99.90;;;;;;5080643;28;20195;-61
2022/09/14 13:24:48;;;;;;;;;;;18.20;99.90;;;;;;5080547;28;19915;-58
2022/09/14 13:27:21;;;;;;;;;;;18.10;99.90;;;;;;5063283;28;19937;-58
2022/09/14 13:29:47;;;;;;;;;;;18.10;99.90;;;;;;5080434;28;20196;-59
2022/09/14 13:32:17;;;;;;;;;;;18.00;99.90;;;;;;5080373;28;19912;-57
2022/09/14 13:34:43;;;;;;;;;;;17.80;99.90;;;;;;5080269;28;19987;-59
2022/09/14 13:37:12;;;;;;;;;;;17.90;99.90;;;;;;5079642;28;19951;-58
2022/09/14 13:39:39;;;;;;;;;;;18.00;99.90;;;;;;5080283;28;19955;-58
2022/09/14 13:42:05;;;;;;;;;;;18.10;99.90;;;;;;5080249;28;19908;-59
2022/09/14 13:44:33;;;;;;;;;;;18.20;99.90;;;;;;5080145;28;19955;-58
2022/09/14 13:47:01;;;;;;;;;;;18.10;99.90;;;;;;5062684;28;19912;-59
2022/09/14 13:49:27;;;;;;;;;;;18.20;99.90;;;;;;5062694;28;19955;-59
2022/09/14 13:52:12;;;;;;;;;;;18.30;99.90;;;;;;5080094;28;20307;-58
2022/09/14 13:54:38;;;;;;;;;;;18.20;99.90;;;;;;5079752;28;20295;-58
2022/09/14 13:57:14;;;;;;;;;;;18.10;99.90;;;;;;5079858;28;19920;-58
2022/09/14 13:59:58;;;;;;;;;;;18.00;99.90;;;;;;5079914;28;19958;-58
2022/09/14 14:02:25;;;;;;;;;;;18.10;99.90;;;;;;5081071;28;20314;-58
2022/09/14 14:04:51;;;;;;;;;;;18.10;99.90;;;;;;5079606;28;19904;-59
2022/09/14 14:07:27;;;;;;;;;;;18.00;99.90;;;;;;5078965;28;19974;-59
2022/09/14 14:09:56;;;;;;;;;;;18.00;99.90;;;;;;5062272;28;19908;-59
2022/09/14 14:12:29;;;;;;;;;;;17.90;99.90;;;;;;5062172;28;19951;-59
2022/09/14 14:14:58;;;;;;;;;;;17.90;99.90;;;;;;5079518;28;19919;-60
2022/09/14 14:17:31;;;;;;;;;;;17.80;99.90;;;;;;5079547;28;19916;-59
2022/09/14 14:20:16;;;;;;;;;;;17.90;99.90;;;;;;5079496;28;19908;-59
2022/09/14 14:22:53;;;;;;;;;;;17.90;99.90;;;;;;5079448;28;19908;-59
2022/09/14 14:25:19;;;;;;;;;;;17.90;99.90;;;;;;5079481;28;20002;-58
2022/09/14 14:27:45;;;;;;;;;;;17.80;99.90;;;;;;5079388;28;20240;-59
2022/09/14 14:30:12;;;;;;;;;;;17.90;99.90;;;;;;5079402;28;20219;-59